Time;durP1;ratioP1;P1;durP2;ratioP2;P2;SDS_P1;SDS_P2;PMS_P1;PMS_P2;Temp;Humidity;BMP_temperature;BMP_pressure;BME280_temperature;BME280_humidity;BME280_pressure;Samples;Min_cycle;Max_cycle;Signal;HPM_P1;HPM_P2
2022/06/23 00:00:55;;;;;;;4.95;3.85;;;20.30;71.90;;;;;;961928;146;27452;-69
2022/06/23 00:03:22;;;;;;;8.03;5.60;;;20.30;71.90;;;;;;961356;146;27275;-69
2022/06/23 00:05:48;;;;;;;6.75;4.78;;;20.20;72.10;;;;;;964129;145;27758;-71
2022/06/23 00:08:15;;;;;;;8.05;4.50;;;20.20;72.40;;;;;;961501;146;27400;-71
2022/06/23 00:10:44;;;;;;;5.95;4.35;;;20.20;72.60;;;;;;956437;146;27464;-71
2022/06/23 00:13:23;;;;;;;4.37;3.98;;;20.10;72.80;;;;;;954425;146;27290;-71
2022/06/23 00:15:50;;;;;;;5.60;4.30;;;20.10;73.20;;;;;;952466;146;27390;-69
2022/06/23 00:18:19;;;;;;;5.05;4.65;;;20.00;73.00;;;;;;952966;146;27343;-70
2022/06/23 00:20:51;;;;;;;5.10;4.00;;;19.90;73.40;;;;;;953726;146;27336;-69
2022/06/23 00:23:18;;;;;;;6.58;4.35;;;19.90;73.50;;;;;;953470;146;27306;-70
2022/06/23 00:25:44;;;;;;;6.12;4.40;;;19.80;73.90;;;;;;953266;146;27421;-69
2022/06/23 00:28:17;;;;;;;5.33;4.60;;;19.80;74.40;;;;;;953527;146;27365;-69
2022/06/23 00:30:43;;;;;;;4.77;3.80;;;19.70;74.70;;;;;;951676;146;27314;-69
2022/06/23 00:33:16;;;;;;;6.85;4.60;;;19.70;74.70;;;;;;954322;146;27303;-71
2022/06/23 00:35:43;;;;;;;6.65;4.20;;;19.60;75.00;;;;;;951060;146;27418;-69
2022/06/23 00:38:13;;;;;;;4.58;4.10;;;19.60;75.20;;;;;;954255;146;27343;-70
2022/06/23 00:40:39;;;;;;;10.93;6.70;;;19.60;75.50;;;;;;954385;146;27394;-70
2022/06/23 00:43:05;;;;;;;6.62;4.58;;;19.50;75.80;;;;;;952748;146;27284;-70
2022/06/23 00:45:35;;;;;;;5.42;4.10;;;19.50;76.10;;;;;;954486;146;27419;-69
2022/06/23 00:48:26;;;;;;;7.75;4.67;;;19.50;76.50;;;;;;951416;146;27340;-69
2022/06/23 00:50:58;;;;;;;4.87;4.37;;;19.40;76.60;;;;;;954743;146;27311;-70
2022/06/23 00:53:34;;;;;;;7.30;4.97;;;19.40;76.70;;;;;;952904;146;27327;-69
2022/06/23 00:56:03;;;;;;;6.70;4.87;;;19.40;77.40;;;;;;955390;146;27233;-69
2022/06/23 00:58:54;;;;;;;6.90;5.35;;;19.30;78.00;;;;;;954976;146;27436;-69
2022/06/23 01:01:39;;;;;;;7.37;5.40;;;19.30;78.80;;;;;;953316;146;27363;-69
2022/06/23 01:04:08;;;;;;;7.53;5.30;;;19.30;79.10;;;;;;932788;146;27339;-69
2022/06/23 01:06:41;;;;;;;5.93;5.33;;;19.30;79.40;;;;;;952470;146;27652;-69
2022/06/23 01:09:23;;;;;;;6.10;5.10;;;19.20;79.90;;;;;;951229;146;27342;-69
2022/06/23 01:11:55;;;;;;;8.90;5.03;;;19.30;80.50;;;;;;939742;146;27354;-70
2022/06/23 01:14:27;;;;;;;6.90;5.30;;;19.20;80.80;;;;;;937983;149;27380;-70
2022/06/23 01:16:54;;;;;;;6.85;5.50;;;19.30;81.40;;;;;;938700;149;27346;-69
2022/06/23 01:19:29;;;;;;;5.92;4.67;;;19.20;81.50;;;;;;936133;149;27318;-69
2022/06/23 01:21:55;;;;;;;6.58;5.60;;;19.20;81.50;;;;;;937232;149;27365;-71
2022/06/23 01:24:31;;;;;;;6.80;4.95;;;19.20;81.50;;;;;;938831;149;27395;-69
2022/06/23 01:27:06;;;;;;;5.83;5.00;;;19.20;82.30;;;;;;937862;149;27344;-69
2022/06/23 01:29:46;;;;;;;6.37;5.78;;;19.20;81.50;;;;;;938360;149;27278;-69
2022/06/23 01:32:14;;;;;;;7.10;5.50;;;19.20;82.30;;;;;;937320;149;27305;-72
2022/06/23 01:34:56;;;;;;;7.60;6.05;;;19.20;82.60;;;;;;932368;149;27361;-69
2022/06/23 01:37:53;;;;;;;5.70;5.13;;;19.10;83.20;;;;;;939437;149;27399;-69
2022/06/23 01:40:20;;;;;;;6.03;4.47;;;19.10;82.90;;;;;;921469;149;27385;-69
2022/06/23 01:42:49;;;;;;;7.23;4.90;;;19.10;82.90;;;;;;937973;149;27399;-69
2022/06/23 01:45:19;;;;;;;4.90;4.50;;;19.10;83.50;;;;;;937782;149;27343;-70
2022/06/23 01:47:51;;;;;;;5.08;4.67;;;19.00;83.50;;;;;;936690;149;27444;-71
2022/06/23 01:50:18;;;;;;;5.47;4.97;;;19.00;83.70;;;;;;938381;149;27346;-69
2022/06/23 01:52:44;;;;;;;7.50;5.20;;;19.00;83.80;;;;;;938557;149;27395;-69
2022/06/23 01:55:26;;;;;;;6.25;4.60;;;19.00;84.20;;;;;;938497;149;27382;-69
2022/06/23 01:57:55;;;;;;;5.97;5.12;;;18.90;84.50;;;;;;938586;149;27448;-70
2022/06/23 02:00:22;;;;;;;6.55;5.92;;;18.90;85.00;;;;;;938214;149;27282;-72
2022/06/23 02:02:58;;;;;;;6.42;5.85;;;18.90;85.80;;;;;;938532;149;27358;-70
2022/06/23 02:05:45;;;;;;;7.65;6.10;;;18.90;86.40;;;;;;937345;149;27452;-69
2022/06/23 02:08:42;;;;;;;5.40;4.90;;;18.80;86.40;;;;;;938102;149;27390;-70
2022/06/23 02:11:15;;;;;;;7.40;5.03;;;18.80;86.40;;;;;;942964;147;27367;-74
2022/06/23 02:14:12;;;;;;;5.47;4.97;;;18.80;86.10;;;;;;958462;147;27360;-76
2022/06/23 02:16:44;;;;;;;5.87;5.10;;;18.70;86.50;;;;;;956184;147;27342;-76
2022/06/23 02:19:32;;;;;;;6.15;5.60;;;18.70;86.20;;;;;;957560;147;27385;-75
2022/06/23 02:22:04;;;;;;;5.50;5.03;;;18.70;86.90;;;;;;956016;147;27452;-75
2022/06/23 02:24:34;;;;;;;7.53;6.00;;;18.60;87.30;;;;;;956400;147;27379;-74
2022/06/23 02:27:12;;;;;;;6.55;4.85;;;18.60;88.20;;;;;;956981;147;27380;-71
2022/06/23 02:29:51;;;;;;;7.15;5.55;;;18.50;88.90;;;;;;940338;148;27369;-76
2022/06/23 02:32:23;;;;;;;6.63;5.10;;;18.50;89.00;;;;;;952762;147;27328;-76
2022/06/23 02:34:52;;;;;;;5.80;4.97;;;18.50;89.10;;;;;;944762;148;27311;-76
2022/06/23 02:37:46;;;;;;;8.08;6.17;;;18.50;89.30;;;;;;949166;148;27446;-73
2022/06/23 02:40:15;;;;;;;6.43;4.80;;;18.50;89.30;;;;;;949678;148;27364;-76
2022/06/23 02:42:42;;;;;;;5.70;4.67;;;18.50;89.00;;;;;;934621;148;27818;-75
2022/06/23 02:45:20;;;;;;;6.20;5.60;;;18.50;89.50;;;;;;949685;148;27495;-73
2022/06/23 02:47:47;;;;;;;6.30;5.70;;;18.40;89.50;;;;;;954266;146;27331;-72
2022/06/23 02:50:27;;;;;;;6.27;5.77;;;18.40;89.20;;;;;;949357;146;28307;-72
2022/06/23 02:53:04;;;;;;;5.57;5.17;;;18.40;89.40;;;;;;947290;148;27309;-72
2022/06/23 02:56:04;;;;;;;7.47;5.87;;;18.30;89.10;;;;;;948422;148;27840;-72
2022/06/23 02:58:43;;;;;;;5.73;5.20;;;18.30;89.40;;;;;;949333;148;27446;-72
2022/06/23 03:01:15;;;;;;;7.10;6.40;;;18.20;89.00;;;;;;950107;148;27361;-72
2022/06/23 03:03:53;;;;;;;6.72;5.95;;;18.20;89.70;;;;;;933997;148;27354;-72
2022/06/23 03:06:19;;;;;;;6.40;5.80;;;18.10;90.20;;;;;;928541;148;27414;-72
2022/06/23 03:08:55;;;;;;;6.50;5.93;;;18.10;90.40;;;;;;956904;145;27397;-72
2022/06/23 03:11:54;;;;;;;8.57;6.33;;;18.10;90.50;;;;;;954706;145;27383;-72
2022/06/23 03:14:40;;;;;;;7.70;5.77;;;18.00;90.70;;;;;;942996;148;27396;-72
2022/06/23 03:17:12;;;;;;;7.40;5.60;;;18.00;90.70;;;;;;942993;148;27790;-73
2022/06/23 03:19:39;;;;;;;7.97;5.97;;;18.00;90.90;;;;;;942760;148;27454;-72
2022/06/23 03:22:11;;;;;;;7.73;5.80;;;17.90;91.10;;;;;;943845;148;27406;-72
2022/06/23 03:24:50;;;;;;;6.90;6.13;;;17.90;91.40;;;;;;943922;149;27357;-72
2022/06/23 03:27:19;;;;;;;6.67;6.00;;;17.90;91.50;;;;;;944987;149;27371;-72
2022/06/23 03:29:46;;;;;;;6.77;5.60;;;17.90;91.60;;;;;;943533;149;27360;-72
2022/06/23 03:32:21;;;;;;;7.43;6.20;;;17.90;91.80;;;;;;943589;149;27415;-72
2022/06/23 03:35:03;;;;;;;7.42;6.15;;;17.90;91.90;;;;;;944078;149;27372;-73
2022/06/23 03:37:44;;;;;;;6.90;6.30;;;17.90;92.10;;;;;;943130;149;27376;-72
2022/06/23 03:43:32;;;;;;;6.97;6.37;;;18.00;92.40;;;;;;944826;149;27377;-73
2022/06/23 03:45:58;;;;;;;6.05;5.55;;;18.00;92.30;;;;;;944154;149;27316;-72
2022/06/23 03:48:25;;;;;;;6.67;6.17;;;18.00;92.50;;;;;;943600;148;27250;-73
2022/06/23 03:51:03;;;;;;;6.53;5.93;;;18.00;92.70;;;;;;943432;148;27465;-73
2022/06/23 03:53:29;;;;;;;7.83;6.40;;;18.00;92.90;;;;;;941009;148;27379;-72
2022/06/23 03:56:03;;;;;;;6.75;5.92;;;18.10;93.00;;;;;;946130;147;27343;-71
2022/06/23 03:58:28;;;;;;;6.87;6.22;;;18.10;93.10;;;;;;943940;148;27321;-71
2022/06/23 04:00:58;;;;;;;7.78;6.97;;;18.20;93.30;;;;;;945825;149;27366;-72
2022/06/23 04:03:30;;;;;;;8.78;6.83;;;18.20;93.90;;;;;;945157;149;27449;-71
2022/06/23 04:05:56;;;;;;;6.97;6.35;;;18.30;93.70;;;;;;939832;149;27363;-72
2022/06/23 04:08:23;;;;;;;8.20;6.80;;;18.30;93.70;;;;;;944756;149;27409;-71
2022/06/23 04:10:49;;;;;;;7.08;6.37;;;18.40;94.10;;;;;;945028;149;27493;-71
2022/06/23 04:13:16;;;;;;;6.70;6.08;;;18.50;93.90;;;;;;944300;149;27434;-72
2022/06/23 04:15:43;;;;;;;9.50;6.12;;;18.60;94.00;;;;;;943199;150;27383;-71
2022/06/23 04:18:18;;;;;;;7.03;6.37;;;18.60;94.10;;;;;;945213;150;27328;-72
2022/06/23 04:20:45;;;;;;;6.22;5.62;;;18.70;94.10;;;;;;943181;150;27357;-72
2022/06/23 04:23:11;;;;;;;6.37;5.67;;;18.80;94.20;;;;;;936468;150;27353;-71
2022/06/23 04:25:46;;;;;;;6.12;5.53;;;18.90;94.30;;;;;;938495;149;27349;-72
2022/06/23 04:28:19;;;;;;;6.72;6.03;;;19.10;94.40;;;;;;940234;149;27318;-72
2022/06/23 04:30:46;;;;;;;6.70;6.08;;;19.20;94.40;;;;;;938588;150;27312;-71
2022/06/23 04:33:15;;;;;;;6.83;6.20;;;19.30;94.40;;;;;;941483;150;27874;-72
2022/06/23 04:35:43;;;;;;;6.78;6.17;;;19.40;94.40;;;;;;940922;150;27446;-72
2022/06/23 04:38:11;;;;;;;7.00;6.37;;;19.60;94.70;;;;;;940879;150;27470;-73
2022/06/23 04:40:38;;;;;;;7.65;6.42;;;19.70;94.30;;;;;;940996;150;27843;-72
2022/06/23 04:43:23;;;;;;;7.80;6.97;;;19.90;94.00;;;;;;935058;151;28363;-72
2022/06/23 04:46:10;;;;;;;6.95;5.78;;;20.00;94.00;;;;;;931868;149;27384;-71
2022/06/23 04:48:40;;;;;;;7.72;6.22;;;20.10;93.80;;;;;;891473;158;27412;-71
2022/06/23 04:51:06;;;;;;;6.42;5.80;;;20.30;93.80;;;;;;901367;156;27456;-72
2022/06/23 04:53:33;;;;;;;6.53;5.92;;;20.50;94.00;;;;;;922202;148;27772;-72
2022/06/23 04:56:02;;;;;;;7.80;7.12;;;20.80;94.40;;;;;;953246;147;27327;-72
2022/06/23 04:58:28;;;;;;;6.50;5.70;;;21.10;95.50;;;;;;952545;148;27367;-71
2022/06/23 05:00:55;;;;;;;6.70;5.83;;;21.60;96.30;;;;;;953535;148;27315;-72
2022/06/23 05:03:36;;;;;;;6.72;5.47;;;22.10;96.70;;;;;;953157;148;27792;-73
2022/06/23 05:06:12;;;;;;;6.17;5.58;;;22.80;96.60;;;;;;933162;152;27819;-72
2022/06/23 05:08:38;;;;;;;6.28;5.60;;;23.50;95.80;;;;;;931952;149;27365;-72
2022/06/23 05:11:42;;;;;;;8.13;5.45;;;24.30;95.00;;;;;;935776;150;27431;-73
2022/06/23 05:14:14;;;;;;;5.53;5.05;;;25.10;93.70;;;;;;942758;148;27375;-73
2022/06/23 05:16:40;;;;;;;5.62;5.12;;;26.10;91.80;;;;;;932511;148;27389;-72
2022/06/23 05:19:07;;;;;;;5.80;5.30;;;26.90;89.30;;;;;;964705;145;27363;-73
2022/06/23 05:21:39;;;;;;;5.97;5.37;;;27.70;84.90;;;;;;941290;149;27438;-72
2022/06/23 05:24:09;;;;;;;5.80;5.30;;;28.40;81.00;;;;;;943871;148;27301;-73
2022/06/23 05:26:38;;;;;;;5.45;4.87;;;29.00;78.60;;;;;;957862;145;27335;-73
2022/06/23 05:29:05;;;;;;;5.47;5.08;;;29.80;76.20;;;;;;942341;148;27361;-72
2022/06/23 05:31:32;;;;;;;5.00;4.58;;;30.50;73.60;;;;;;956090;146;27446;-72
2022/06/23 05:33:58;;;;;;;6.62;4.83;;;31.10;70.80;;;;;;955943;146;27819;-73
2022/06/23 05:36:25;;;;;;;5.72;5.08;;;31.80;68.60;;;;;;955612;146;27308;-73
2022/06/23 05:39:13;;;;;;;4.42;4.03;;;32.40;66.40;;;;;;958677;146;27320;-73
2022/06/23 05:41:40;;;;;;;6.20;4.72;;;33.10;64.50;;;;;;956458;146;27385;-72
2022/06/23 05:44:16;;;;;;;5.08;4.40;;;33.70;62.50;;;;;;958215;146;27377;-72
2022/06/23 05:46:42;;;;;;;5.53;4.15;;;34.20;60.50;;;;;;956562;146;27275;-73
2022/06/23 05:49:26;;;;;;;4.90;4.37;;;34.70;59.20;;;;;;956582;146;27348;-74
2022/06/23 05:51:59;;;;;;;5.00;4.05;;;35.20;58.20;;;;;;956830;146;27335;-73
2022/06/23 05:54:28;;;;;;;6.20;3.98;;;35.70;57.20;;;;;;955836;146;26219;-73
2022/06/23 05:57:03;;;;;;;4.40;3.70;;;36.10;56.00;;;;;;958992;146;27284;-74
2022/06/23 05:59:53;;;;;;;5.62;3.60;;;36.60;55.30;;;;;;945601;148;26308;-73
2022/06/23 06:02:18;;;;;;;4.03;3.47;;;36.90;54.30;;;;;;941013;148;26284;-73
2022/06/23 06:04:44;;;;;;;4.55;3.62;;;37.40;53.60;;;;;;942424;148;26373;-73
2022/06/23 06:07:14;;;;;;;4.72;3.60;;;37.80;53.10;;;;;;942012;149;26222;-74
2022/06/23 06:09:40;;;;;;;5.35;3.72;;;38.20;51.70;;;;;;942042;149;26287;-73
2022/06/23 06:12:19;;;;;;;4.28;3.33;;;38.50;50.70;;;;;;940653;149;26251;-73
2022/06/23 06:14:46;;;;;;;5.20;3.27;;;38.90;50.00;;;;;;955437;145;26389;-74
2022/06/23 06:17:15;;;;;;;5.30;3.15;;;39.20;49.50;;;;;;926411;150;26252;-74
2022/06/23 06:19:42;;;;;;;4.08;3.35;;;39.50;48.80;;;;;;936147;149;26318;-73
2022/06/23 06:22:14;;;;;;;4.55;3.60;;;39.90;48.30;;;;;;941368;149;26373;-70
2022/06/23 06:24:40;;;;;;;3.95;3.12;;;40.20;47.80;;;;;;940589;149;26260;-71
2022/06/23 06:27:10;;;;;;;4.83;3.20;;;40.50;46.80;;;;;;941897;149;26229;-71
2022/06/23 06:29:36;;;;;;;7.10;3.25;;;40.80;46.00;;;;;;935016;149;26239;-71
2022/06/23 06:32:30;;;;;;;3.85;2.80;;;41.10;45.10;;;;;;945929;148;26258;-70
2022/06/23 06:35:21;;;;;;;4.17;2.65;;;41.40;44.40;;;;;;944181;148;26272;-71
2022/06/23 06:37:54;;;;;;;3.90;3.12;;;41.60;44.00;;;;;;945150;149;26358;-72
2022/06/23 06:40:20;;;;;;;3.58;2.87;;;41.90;43.00;;;;;;943923;149;26253;-71
2022/06/23 06:42:47;;;;;;;4.20;3.00;;;42.00;42.60;;;;;;945953;149;26288;-72
2022/06/23 06:45:13;;;;;;;5.22;2.85;;;42.20;42.10;;;;;;946177;149;26374;-72
2022/06/23 06:47:40;;;;;;;3.30;2.65;;;42.40;41.70;;;;;;945702;149;26190;-71
2022/06/23 06:50:19;;;;;;;4.10;2.47;;;42.60;41.30;;;;;;944657;148;26244;-71
2022/06/23 06:52:45;;;;;;;2.80;2.60;;;42.90;41.00;;;;;;945890;149;26246;-73
2022/06/23 06:55:12;;;;;;;5.72;2.70;;;43.10;40.70;;;;;;944122;149;26307;-73
2022/06/23 06:58:06;;;;;;;2.40;2.20;;;43.50;40.20;;;;;;944142;149;26322;-75
2022/06/23 07:00:42;;;;;;;5.78;2.58;;;43.80;39.80;;;;;;929409;149;26356;-74
2022/06/23 07:03:08;;;;;;;4.30;2.67;;;44.20;39.00;;;;;;941890;149;26726;-73
2022/06/23 07:05:53;;;;;;;5.92;2.27;;;44.50;38.20;;;;;;944835;149;26234;-73
2022/06/23 07:08:29;;;;;;;3.35;2.27;;;45.00;37.30;;;;;;944003;149;26258;-72
2022/06/23 07:11:04;;;;;;;3.83;2.52;;;45.20;36.60;;;;;;944575;149;26259;-74
2022/06/23 07:13:37;;;;;;;7.17;2.83;;;45.50;35.90;;;;;;942014;149;26253;-73
2022/06/23 07:16:06;;;;;;;4.10;2.25;;;45.80;35.10;;;;;;942772;150;26256;-74
2022/06/23 07:18:41;;;;;;;3.27;2.30;;;45.90;34.50;;;;;;926737;150;26343;-75
2022/06/23 07:21:07;;;;;;;2.22;2.05;;;46.00;34.00;;;;;;949908;148;26304;-74
2022/06/23 07:23:37;;;;;;;3.95;2.37;;;46.20;33.60;;;;;;942216;150;26367;-73
2022/06/23 07:26:10;;;;;;;2.55;2.25;;;46.30;33.10;;;;;;942294;150;26254;-73
2022/06/23 07:28:36;;;;;;;3.62;2.20;;;46.40;32.90;;;;;;934372;149;26255;-75
2022/06/23 07:31:03;;;;;;;2.35;1.80;;;46.40;32.70;;;;;;953189;148;26272;-73
2022/06/23 07:33:40;;;;;;;2.77;2.08;;;46.50;32.50;;;;;;948089;148;26271;-73
2022/06/23 07:36:13;;;;;;;4.00;2.30;;;46.60;32.30;;;;;;929737;151;26190;-73
2022/06/23 07:38:49;;;;;;;5.10;2.33;;;46.70;32.10;;;;;;934292;151;26594;-75
2022/06/23 07:41:28;;;;;;;4.78;2.20;;;46.90;31.80;;;;;;931671;150;26290;-72
2022/06/23 07:44:00;;;;;;;4.75;2.37;;;47.10;31.60;;;;;;934791;151;26260;-72
2022/06/23 07:46:27;;;;;;;3.33;2.25;;;47.30;31.30;;;;;;933846;150;26278;-73
2022/06/23 07:48:53;;;;;;;6.03;2.50;;;47.50;30.90;;;;;;931240;150;26291;-74
2022/06/23 07:51:20;;;;;;;4.05;2.45;;;47.80;30.80;;;;;;938470;150;26350;-73
2022/06/23 07:53:46;;;;;;;3.45;2.50;;;48.00;30.40;;;;;;934387;151;26364;-72
2022/06/23 07:56:13;;;;;;;4.40;2.12;;;48.40;30.10;;;;;;932167;151;26235;-73
2022/06/23 07:58:42;;;;;;;3.15;1.92;;;48.40;29.80;;;;;;941646;150;26334;-73
2022/06/23 08:01:09;;;;;;;3.33;2.10;;;48.60;29.60;;;;;;942303;150;26198;-74
2022/06/23 08:03:53;;;;;;;3.02;1.95;;;48.70;29.50;;;;;;934863;150;26240;-72
2022/06/23 08:06:21;;;;;;;4.42;2.17;;;48.80;29.50;;;;;;929589;148;26316;-72
2022/06/23 08:08:46;;;;;;;4.22;2.30;;;48.90;29.30;;;;;;938908;150;26513;-73
2022/06/23 08:13:58;;;;;;;3.62;1.95;;;49.10;29.10;;;;;;954831;148;26205;-72
2022/06/23 08:19:12;;;;;;;5.12;2.72;;;49.30;28.70;;;;;;934278;151;26251;-74
2022/06/23 08:21:56;;;;;;;3.33;2.12;;;49.50;28.70;;;;;;937569;151;26376;-75
2022/06/23 08:24:25;;;;;;;6.25;2.20;;;49.60;28.40;;;;;;945365;148;26247;-72
2022/06/23 08:27:10;;;;;;;3.60;1.98;;;49.80;28.10;;;;;;953243;148;26224;-74
2022/06/23 08:29:40;;;;;;;5.25;2.30;;;49.70;27.70;;;;;;951720;148;26188;-73
2022/06/23 08:32:06;;;;;;;3.77;2.08;;;49.50;27.70;;;;;;952525;148;26258;-73
2022/06/23 08:34:33;;;;;;;6.40;2.50;;;49.40;27.70;;;;;;945745;150;26273;-72
2022/06/23 08:37:00;;;;;;;4.72;2.17;;;49.30;27.80;;;;;;945229;150;26301;-73
2022/06/23 08:39:26;;;;;;;4.25;2.22;;;49.10;27.70;;;;;;939225;150;26346;-73
2022/06/23 08:42:14;;;;;;;4.03;2.27;;;49.00;27.70;;;;;;944398;150;26272;-72
2022/06/23 08:44:53;;;;;;;4.78;2.77;;;48.80;27.70;;;;;;943919;150;26272;-72
2022/06/23 08:47:22;;;;;;;4.87;2.27;;;48.60;27.80;;;;;;944610;150;26322;-72
2022/06/23 08:49:57;;;;;;;4.42;2.22;;;48.50;28.00;;;;;;953683;148;26254;-73
2022/06/23 08:52:43;;;;;;;5.00;2.50;;;48.40;27.90;;;;;;938365;151;26255;-74
2022/06/23 08:55:11;;;;;;;4.25;2.40;;;48.30;27.80;;;;;;925718;148;26322;-75
2022/06/23 08:57:56;;;;;;;5.87;2.08;;;48.20;27.90;;;;;;951879;148;26326;-72
2022/06/23 09:00:37;;;;;;;7.22;2.20;;;48.00;27.90;;;;;;945217;150;26343;-73
2022/06/23 09:03:13;;;;;;;4.90;2.10;;;47.80;28.00;;;;;;943315;150;26232;-72
2022/06/23 09:06:01;;;;;;;4.25;2.40;;;47.80;28.00;;;;;;955920;147;26337;-74
2022/06/23 09:08:30;;;;;;;3.65;2.00;;;47.80;27.90;;;;;;937066;150;26404;-74
2022/06/23 09:11:12;;;;;;;5.78;2.47;;;47.70;27.70;;;;;;932990;151;26269;-72
2022/06/23 09:13:57;;;;;;;4.62;2.10;;;47.50;27.70;;;;;;956404;147;26337;-73
2022/06/23 09:16:48;;;;;;;5.97;2.40;;;47.30;27.90;;;;;;946631;148;26377;-73
2022/06/23 09:19:23;;;;;;;2.90;1.92;;;47.20;28.00;;;;;;948895;145;26195;-72
2022/06/23 09:22:18;;;;;;;2.70;2.05;;;47.10;27.90;;;;;;970515;145;26360;-74
2022/06/23 09:24:47;;;;;;;2.65;2.05;;;46.90;27.90;;;;;;965433;145;26328;-74
2022/06/23 09:27:35;;;;;;;4.35;2.30;;;46.80;28.00;;;;;;955121;148;26262;-72
2022/06/23 09:30:07;;;;;;;3.98;2.47;;;46.70;28.00;;;;;;967560;145;26212;-73
2022/06/23 09:32:42;;;;;;;2.12;1.70;;;46.70;28.10;;;;;;966865;145;26220;-72
2022/06/23 09:35:27;;;;;;;5.45;2.45;;;46.70;28.10;;;;;;951575;148;26331;-74
2022/06/23 09:38:05;;;;;;;4.67;2.17;;;46.80;28.10;;;;;;951380;147;26287;-73
2022/06/23 09:40:38;;;;;;;5.05;2.40;;;46.80;27.80;;;;;;949958;147;26242;-73
2022/06/23 09:43:13;;;;;;;3.20;1.95;;;46.80;27.80;;;;;;949748;148;26232;-73
2022/06/23 09:45:40;;;;;;;6.37;2.27;;;46.70;27.80;;;;;;956575;148;26380;-73
2022/06/23 09:48:25;;;;;;;3.98;1.92;;;46.60;27.80;;;;;;955356;148;26353;-74
2022/06/23 09:51:17;;;;;;;2.95;1.92;;;46.50;27.80;;;;;;967177;145;26263;-75
2022/06/23 09:53:54;;;;;;;4.83;2.12;;;46.30;27.90;;;;;;966950;145;26277;-72
2022/06/23 09:56:58;;;;;;;3.60;2.08;;;46.30;28.00;;;;;;966852;145;26388;-72
2022/06/23 09:59:37;;;;;;;4.97;2.00;;;46.20;27.90;;;;;;966809;145;26233;-74
2022/06/23 10:02:22;;;;;;;3.95;2.10;;;46.00;27.70;;;;;;961971;146;26203;-73
2022/06/23 10:05:03;;;;;;;3.22;1.75;;;45.70;27.80;;;;;;969383;145;26333;-73
2022/06/23 10:07:33;;;;;;;3.60;1.87;;;45.30;28.20;;;;;;969929;145;26629;-74
2022/06/23 10:10:08;;;;;;;3.42;2.15;;;44.90;27.60;;;;;;952115;148;26362;-72
2022/06/23 10:13:00;;;;;;;3.85;2.05;;;44.70;28.30;;;;;;944969;148;26243;-72
2022/06/23 10:15:34;;;;;;;5.60;2.37;;;44.30;28.40;;;;;;919031;153;26299;-72
2022/06/23 10:18:37;;;;;;;3.92;1.82;;;43.90;28.50;;;;;;904263;155;26705;-73
2022/06/23 10:21:13;;;;;;;5.45;2.30;;;43.60;28.60;;;;;;917296;149;26219;-73
2022/06/23 10:23:58;;;;;;;4.25;2.33;;;43.20;28.90;;;;;;942310;146;26293;-72
2022/06/23 10:26:33;;;;;;;5.30;2.70;;;42.80;29.00;;;;;;925218;149;26383;-73
2022/06/23 10:29:24;;;;;;;3.65;2.10;;;42.40;29.10;;;;;;941488;146;26263;-71
2022/06/23 10:32:13;;;;;;;11.63;2.80;;;42.00;29.40;;;;;;926056;146;26364;-72
2022/06/23 10:34:45;;;;;;;2.87;2.20;;;41.60;29.60;;;;;;939813;148;26352;-72
2022/06/23 10:37:42;;;;;;;3.80;2.25;;;41.10;29.90;;;;;;928454;149;26357;-72
2022/06/23 10:40:45;;;;;;;6.55;2.17;;;40.80;30.00;;;;;;941507;146;26204;-73
2022/06/23 10:43:21;;;;;;;4.95;2.35;;;40.30;30.10;;;;;;953795;146;27313;-72
2022/06/23 10:45:50;;;;;;;4.58;2.22;;;39.80;30.10;;;;;;943372;148;27329;-73
2022/06/23 10:48:29;;;;;;;3.35;2.35;;;39.30;30.60;;;;;;954465;146;27327;-72
2022/06/23 10:51:33;;;;;;;3.27;2.30;;;38.90;31.20;;;;;;950841;146;26217;-72
2022/06/23 10:54:08;;;;;;;3.37;2.10;;;38.50;31.50;;;;;;953399;146;27376;-72
2022/06/23 10:56:57;;;;;;;3.77;2.12;;;38.10;31.80;;;;;;930846;149;27336;-72
2022/06/23 10:59:50;;;;;;;2.80;2.27;;;37.70;32.20;;;;;;946113;148;27823;-72
2022/06/23 11:02:38;;;;;;;2.80;2.50;;;37.40;32.80;;;;;;947432;148;27375;-71
2022/06/23 11:05:23;;;;;;;4.72;2.80;;;37.10;33.20;;;;;;944634;148;27478;-71
2022/06/23 11:08:13;;;;;;;3.90;2.42;;;36.70;33.80;;;;;;933483;149;27847;-71
2022/06/23 11:10:49;;;;;;;5.28;2.55;;;36.40;33.90;;;;;;932771;150;27258;-72
2022/06/23 11:13:33;;;;;;;7.00;2.80;;;36.10;34.50;;;;;;945042;147;27554;-72
2022/06/23 11:16:02;;;;;;;4.22;2.72;;;35.80;34.80;;;;;;900649;156;28482;-72
2022/06/23 11:18:31;;;;;;;3.00;2.10;;;35.60;35.10;;;;;;931804;148;28050;-72
2022/06/23 11:21:16;;;;;;;4.60;2.30;;;35.50;35.50;;;;;;947165;148;27368;-74
2022/06/23 11:24:04;;;;;;;3.75;2.70;;;35.30;35.70;;;;;;946108;148;27319;-72
2022/06/23 11:26:49;;;;;;;2.77;2.47;;;35.20;35.60;;;;;;948577;147;27363;-72
2022/06/23 11:29:39;;;;;;;3.08;2.10;;;35.10;35.80;;;;;;949984;148;27415;-72
2022/06/23 11:32:24;;;;;;;6.60;2.90;;;35.00;35.90;;;;;;947546;148;27311;-72
2022/06/23 11:35:04;;;;;;;4.62;3.22;;;34.80;36.10;;;;;;947473;148;27458;-73
2022/06/23 11:37:48;;;;;;;4.87;2.90;;;34.70;36.30;;;;;;945025;148;27357;-71
2022/06/23 11:40:35;;;;;;;3.20;2.65;;;34.50;36.50;;;;;;946813;148;27463;-71
2022/06/23 11:43:05;;;;;;;4.17;2.30;;;34.40;37.00;;;;;;949011;148;28934;-71
2022/06/23 11:45:43;;;;;;;3.92;2.40;;;34.30;36.90;;;;;;944863;148;27311;-71
2022/06/23 11:48:28;;;;;;;3.42;2.55;;;34.30;37.20;;;;;;948085;148;27317;-71
2022/06/23 11:51:16;;;;;;;3.67;2.50;;;34.20;37.40;;;;;;946217;148;27349;-72
2022/06/23 11:53:46;;;;;;;5.83;2.20;;;34.20;37.30;;;;;;948028;148;27310;-72
2022/06/23 11:56:40;;;;;;;3.08;2.33;;;34.30;37.60;;;;;;920388;153;27398;-72
2022/06/23 11:59:21;;;;;;;2.47;1.98;;;34.30;37.80;;;;;;948356;148;27370;-72
2022/06/23 12:01:48;;;;;;;3.15;1.92;;;34.40;37.60;;;;;;947946;148;27435;-72
2022/06/23 12:04:33;;;;;;;4.75;2.30;;;34.60;37.50;;;;;;949257;148;27323;-72
2022/06/23 12:07:02;;;;;;;4.25;2.90;;;34.70;37.60;;;;;;948797;148;27481;-73
2022/06/23 12:09:44;;;;;;;4.30;2.58;;;34.80;37.70;;;;;;947833;148;27421;-71
2022/06/23 12:12:11;;;;;;;2.15;2.00;;;35.00;37.70;;;;;;947377;148;27349;-72
2022/06/23 12:14:37;;;;;;;3.27;2.20;;;35.20;38.30;;;;;;949432;148;27321;-72
2022/06/23 12:17:10;;;;;;;5.97;2.70;;;35.40;37.60;;;;;;948436;148;27780;-72
2022/06/23 12:19:45;;;;;;;3.72;2.65;;;35.50;37.40;;;;;;945959;148;27333;-72
2022/06/23 12:22:11;;;;;;;2.33;2.12;;;35.60;37.30;;;;;;936459;148;27454;-72
2022/06/23 12:24:53;;;;;;;3.85;2.27;;;35.70;37.10;;;;;;944736;148;27376;-72
2022/06/23 12:27:22;;;;;;;4.33;2.25;;;35.70;36.70;;;;;;944467;148;27302;-71
2022/06/23 12:29:57;;;;;;;3.70;2.42;;;35.60;36.50;;;;;;937500;148;27320;-74
2022/06/23 12:32:36;;;;;;;4.45;2.27;;;35.60;36.40;;;;;;945393;148;27317;-71
2022/06/23 12:35:11;;;;;;;5.20;2.45;;;35.50;36.30;;;;;;945661;148;27787;-72
2022/06/23 12:37:46;;;;;;;3.75;2.30;;;35.40;36.40;;;;;;945820;148;27389;-71
2022/06/23 12:40:19;;;;;;;5.25;2.40;;;35.30;36.60;;;;;;946407;148;27341;-71
2022/06/23 12:42:50;;;;;;;4.03;2.33;;;35.20;37.20;;;;;;946740;148;27473;-72
2022/06/23 12:45:18;;;;;;;2.50;2.00;;;35.10;36.50;;;;;;944328;148;27925;-74
2022/06/23 12:47:53;;;;;;;2.70;1.95;;;35.00;36.70;;;;;;945176;148;27502;-71
2022/06/23 12:50:34;;;;;;;2.72;2.30;;;34.90;37.00;;;;;;944928;148;27328;-71
2022/06/23 12:53:01;;;;;;;3.62;2.37;;;34.80;36.70;;;;;;945700;148;27710;-72
2022/06/23 12:55:49;;;;;;;5.75;2.15;;;34.70;36.90;;;;;;946924;148;27351;-71
2022/06/23 12:58:34;;;;;;;2.65;2.25;;;34.60;37.00;;;;;;946441;148;27343;-72
2022/06/23 13:01:03;;;;;;;4.33;2.20;;;34.50;37.10;;;;;;945066;148;27352;-71
2022/06/23 13:03:35;;;;;;;3.25;2.05;;;34.40;37.20;;;;;;944721;148;27350;-71
2022/06/23 13:06:29;;;;;;;5.15;2.37;;;34.40;37.20;;;;;;945079;148;27434;-71
2022/06/23 13:08:59;;;;;;;3.52;1.75;;;34.40;37.30;;;;;;946415;148;27476;-71
2022/06/23 13:11:28;;;;;;;2.92;1.92;;;34.40;37.20;;;;;;945479;148;27334;-71
2022/06/23 13:13:54;;;;;;;2.22;2.00;;;34.40;37.20;;;;;;946226;148;27335;-72
2022/06/23 13:16:24;;;;;;;2.17;1.80;;;34.40;37.20;;;;;;944473;148;27343;-71
2022/06/23 13:18:50;;;;;;;3.17;2.27;;;34.40;37.40;;;;;;943209;148;27394;-71
2022/06/23 13:21:17;;;;;;;3.22;2.30;;;34.60;37.50;;;;;;943387;148;27374;-73
2022/06/23 13:23:46;;;;;;;2.30;1.92;;;34.70;37.40;;;;;;940876;148;27307;-71
2022/06/23 13:26:28;;;;;;;3.40;2.47;;;34.80;37.20;;;;;;937663;148;27302;-72
2022/06/23 13:29:13;;;;;;;3.00;2.08;;;34.80;36.50;;;;;;943527;148;27331;-72
2022/06/23 13:32:00;;;;;;;2.92;1.70;;;34.90;37.00;;;;;;943706;148;27496;-73
2022/06/23 13:34:29;;;;;;;3.00;1.57;;;35.00;36.90;;;;;;941338;148;27473;-71
2022/06/23 13:37:05;;;;;;;2.90;1.67;;;35.10;36.40;;;;;;942447;148;27380;-72